sensor_id;sensor_type;location;lat;lon;timestamp;pressure;altitude;pressure_sealevel;temperature;humidity
54850;BME280;47660;51.334;12.396;2023-01-27T00:02:11;100719.50;;;4.21;100.00
54850;BME280;47660;51.334;12.396;2023-01-27T00:04:36;100720.53;;;4.15;100.00
54850;BME280;47660;51.334;12.396;2023-01-27T00:07:02;100718.13;;;3.79;100.00
54850;BME280;47660;51.334;12.396;2023-01-27T00:09:27;100710.56;;;3.68;100.00
54850;BME280;47660;51.334;12.396;2023-01-27T00:11:53;100707.06;;;3.68;100.00
54850;BME280;47660;51.334;12.396;2023-01-27T00:14:36;100703.59;;;3.66;100.00
54850;BME280;47660;51.334;12.396;2023-01-27T00:17:02;100698.25;;;3.69;100.00
54850;BME280;47660;51.334;12.396;2023-01-27T00:19:29;100702.41;;;3.78;100.00
54850;BME280;47660;51.334;12.396;2023-01-27T00:21:55;100695.81;;;3.63;100.00
54850;BME280;47660;51.334;12.396;2023-01-27T00:24:39;100705.47;;;3.62;100.00
54850;BME280;47660;51.334;12.396;2023-01-27T00:27:07;100700.63;;;3.78;100.00
54850;BME280;47660;51.334;12.396;2023-01-27T00:29:39;100695.00;;;3.91;100.00
54850;BME280;47660;51.334;12.396;2023-01-27T00:32:05;100690.06;;;3.80;100.00
54850;BME280;47660;51.334;12.396;2023-01-27T00:34:51;100697.44;;;3.97;100.00
54850;BME280;47660;51.334;12.396;2023-01-27T00:37:18;100699.13;;;3.99;100.00
54850;BME280;47660;51.334;12.396;2023-01-27T00:39:44;100702.25;;;3.82;100.00
54850;BME280;47660;51.334;12.396;2023-01-27T00:42:10;100704.41;;;3.69;100.00
54850;BME280;47660;51.334;12.396;2023-01-27T00:44:35;100706.56;;;4.13;100.00
54850;BME280;47660;51.334;12.396;2023-01-27T00:47:01;100698.88;;;3.79;100.00
54850;BME280;47660;51.334;12.396;2023-01-27T00:49:26;100698.63;;;3.86;100.00
54850;BME280;47660;51.334;12.396;2023-01-27T00:51:52;100701.34;;;3.83;100.00
54850;BME280;47660;51.334;12.396;2023-01-27T00:54:19;100699.72;;;3.79;100.00
54850;BME280;47660;51.334;12.396;2023-01-27T00:56:47;100699.56;;;3.54;100.00
54850;BME280;47660;51.334;12.396;2023-01-27T00:59:15;100703.34;;;3.75;100.00
54850;BME280;47660;51.334;12.396;2023-01-27T01:01:40;100697.88;;;3.83;100.00
54850;BME280;47660;51.334;12.396;2023-01-27T01:04:08;100705.69;;;3.84;100.00
54850;BME280;47660;51.334;12.396;2023-01-27T01:06:34;100708.19;;;3.89;100.00
54850;BME280;47660;51.334;12.396;2023-01-27T01:08:59;100712.09;;;3.76;100.00
54850;BME280;47660;51.334;12.396;2023-01-27T01:11:29;100709.78;;;3.95;100.00
54850;BME280;47660;51.334;12.396;2023-01-27T01:13:54;100711.31;;;3.72;100.00
54850;BME280;47660;51.334;12.396;2023-01-27T01:16:21;100710.06;;;3.85;100.00
54850;BME280;47660;51.334;12.396;2023-01-27T01:18:47;100712.19;;;3.72;100.00
54850;BME280;47660;51.334;12.396;2023-01-27T01:21:13;100708.28;;;3.86;100.00
54850;BME280;47660;51.334;12.396;2023-01-27T01:23:42;100704.03;;;4.10;100.00
54850;BME280;47660;51.334;12.396;2023-01-27T01:26:10;100711.63;;;3.91;100.00
54850;BME280;47660;51.334;12.396;2023-01-27T01:35:19;100711.50;;;3.96;100.00
54850;BME280;47660;51.334;12.396;2023-01-27T01:37:45;100705.69;;;3.84;100.00
54850;BME280;47660;51.334;12.396;2023-01-27T01:40:13;100711.13;;;3.78;100.00
54850;BME280;47660;51.334;12.396;2023-01-27T01:42:54;100707.59;;;4.09;100.00
54850;BME280;47660;51.334;12.396;2023-01-27T01:48:19;100705.91;;;4.07;100.00
54850;BME280;47660;51.334;12.396;2023-01-27T01:51:07;100712.88;;;4.09;100.00
54850;BME280;47660;51.334;12.396;2023-01-27T01:53:39;100719.50;;;3.93;100.00
54850;BME280;47660;51.334;12.396;2023-01-27T01:56:15;100703.00;;;3.86;100.00
54850;BME280;47660;51.334;12.396;2023-01-27T01:58:44;100713.97;;;4.02;100.00
54850;BME280;47660;51.334;12.396;2023-01-27T02:01:14;100714.81;;;4.03;100.00
54850;BME280;47660;51.334;12.396;2023-01-27T02:03:42;100715.06;;;3.93;100.00
54850;BME280;47660;51.334;12.396;2023-01-27T02:06:12;100709.09;;;4.18;100.00
54850;BME280;47660;51.334;12.396;2023-01-27T02:08:45;100710.09;;;4.14;100.00
54850;BME280;47660;51.334;12.396;2023-01-27T02:11:12;100708.78;;;3.69;100.00
54850;BME280;47660;51.334;12.396;2023-01-27T02:13:40;100707.88;;;4.00;100.00
54850;BME280;47660;51.334;12.396;2023-01-27T02:16:07;100711.22;;;3.75;100.00
54850;BME280;47660;51.334;12.396;2023-01-27T02:18:35;100713.13;;;3.70;100.00
54850;BME280;47660;51.334;12.396;2023-01-27T02:21:01;100711.06;;;3.81;100.00
54850;BME280;47660;51.334;12.396;2023-01-27T02:23:47;100713.44;;;3.59;100.00
54850;BME280;47660;51.334;12.396;2023-01-27T02:28:59;100711.56;;;3.63;100.00
54850;BME280;47660;51.334;12.396;2023-01-27T02:31:26;100713.09;;;3.40;100.00
54850;BME280;47660;51.334;12.396;2023-01-27T02:33:59;100699.97;;;3.70;100.00
54850;BME280;47660;51.334;12.396;2023-01-27T02:36:26;100695.63;;;3.69;100.00
54850;BME280;47660;51.334;12.396;2023-01-27T02:38:55;100699.06;;;3.71;100.00
54850;BME280;47660;51.334;12.396;2023-01-27T02:41:30;100708.34;;;3.84;100.00
54850;BME280;47660;51.334;12.396;2023-01-27T02:43:56;100702.63;;;3.38;100.00
54850;BME280;47660;51.334;12.396;2023-01-27T02:46:22;100711.00;;;3.53;100.00
54850;BME280;47660;51.334;12.396;2023-01-27T02:48:47;100719.34;;;3.67;100.00
54850;BME280;47660;51.334;12.396;2023-01-27T02:51:13;100720.72;;;3.81;100.00
54850;BME280;47660;51.334;12.396;2023-01-27T02:53:44;100724.03;;;3.86;100.00
54850;BME280;47660;51.334;12.396;2023-01-27T02:56:18;100725.00;;;3.83;100.00
54850;BME280;47660;51.334;12.396;2023-01-27T02:58:43;100733.56;;;3.90;100.00
54850;BME280;47660;51.334;12.396;2023-01-27T03:01:09;100742.84;;;4.04;100.00
54850;BME280;47660;51.334;12.396;2023-01-27T03:03:35;100749.94;;;3.70;100.00
54850;BME280;47660;51.334;12.396;2023-01-27T03:06:08;100755.25;;;3.68;100.00
54850;BME280;47660;51.334;12.396;2023-01-27T03:08:33;100753.13;;;3.81;100.00
54850;BME280;47660;51.334;12.396;2023-01-27T03:10:58;100753.84;;;4.16;100.00
54850;BME280;47660;51.334;12.396;2023-01-27T03:13:24;100751.63;;;4.03;100.00
54850;BME280;47660;51.334;12.396;2023-01-27T03:15:52;100758.47;;;3.78;100.00
54850;BME280;47660;51.334;12.396;2023-01-27T03:18:39;100757.47;;;3.82;100.00
54850;BME280;47660;51.334;12.396;2023-01-27T03:21:05;100755.75;;;3.81;100.00
54850;BME280;47660;51.334;12.396;2023-01-27T03:23:35;100758.75;;;3.99;100.00
54850;BME280;47660;51.334;12.396;2023-01-27T03:26:04;100762.31;;;3.96;100.00
54850;BME280;47660;51.334;12.396;2023-01-27T03:28:32;100756.34;;;3.91;100.00
54850;BME280;47660;51.334;12.396;2023-01-27T03:31:10;100762.88;;;4.08;100.00
54850;BME280;47660;51.334;12.396;2023-01-27T03:33:45;100758.13;;;3.91;100.00
54850;BME280;47660;51.334;12.396;2023-01-27T03:36:12;100756.63;;;3.82;100.00
54850;BME280;47660;51.334;12.396;2023-01-27T03:38:56;100768.00;;;3.82;100.00
54850;BME280;47660;51.334;12.396;2023-01-27T03:41:40;100776.28;;;3.68;100.00
54850;BME280;47660;51.334;12.396;2023-01-27T03:44:27;100768.91;;;3.81;100.00
54850;BME280;47660;51.334;12.396;2023-01-27T03:47:10;100777.47;;;3.56;100.00
54850;BME280;47660;51.334;12.396;2023-01-27T03:49:36;100771.38;;;3.21;100.00
54850;BME280;47660;51.334;12.396;2023-01-27T03:52:01;100768.56;;;3.94;100.00
54850;BME280;47660;51.334;12.396;2023-01-27T03:54:29;100771.53;;;3.81;100.00
54850;BME280;47660;51.334;12.396;2023-01-27T03:56:54;100767.69;;;3.62;100.00
54850;BME280;47660;51.334;12.396;2023-01-27T03:59:20;100774.44;;;3.39;100.00
54850;BME280;47660;51.334;12.396;2023-01-27T04:01:45;100768.28;;;3.40;100.00
54850;BME280;47660;51.334;12.396;2023-01-27T04:04:13;100769.13;;;3.40;100.00
54850;BME280;47660;51.334;12.396;2023-01-27T04:06:57;100770.25;;;3.32;100.00
54850;BME280;47660;51.334;12.396;2023-01-27T04:09:33;100773.72;;;3.65;100.00
54850;BME280;47660;51.334;12.396;2023-01-27T04:12:01;100768.72;;;3.56;100.00
54850;BME280;47660;51.334;12.396;2023-01-27T04:14:30;100769.75;;;3.50;100.00
54850;BME280;47660;51.334;12.396;2023-01-27T04:17:08;100780.44;;;3.44;100.00
54850;BME280;47660;51.334;12.396;2023-01-27T04:19:36;100772.41;;;3.49;100.00
54850;BME280;47660;51.334;12.396;2023-01-27T04:22:02;100772.06;;;3.30;100.00
54850;BME280;47660;51.334;12.396;2023-01-27T04:24:28;100783.69;;;3.21;100.00
54850;BME280;47660;51.334;12.396;2023-01-27T04:29:22;100771.75;;;3.40;100.00
54850;BME280;47660;51.334;12.396;2023-01-27T04:31:54;100775.56;;;3.30;100.00
54850;BME280;47660;51.334;12.396;2023-01-27T04:34:23;100768.81;;;3.53;100.00
54850;BME280;47660;51.334;12.396;2023-01-27T04:36:49;100780.06;;;3.58;100.00
54850;BME280;47660;51.334;12.396;2023-01-27T04:39:15;100780.13;;;3.55;100.00
54850;BME280;47660;51.334;12.396;2023-01-27T04:41:41;100784.06;;;3.40;100.00
54850;BME280;47660;51.334;12.396;2023-01-27T04:44:07;100785.78;;;3.41;100.00
54850;BME280;47660;51.334;12.396;2023-01-27T04:46:33;100792.53;;;3.50;100.00
54850;BME280;47660;51.334;12.396;2023-01-27T04:48:59;100787.41;;;3.45;100.00
54850;BME280;47660;51.334;12.396;2023-01-27T04:51:25;100792.63;;;3.47;100.00
54850;BME280;47660;51.334;12.396;2023-01-27T04:53:51;100788.25;;;3.47;100.00
54850;BME280;47660;51.334;12.396;2023-01-27T04:59:00;100800.94;;;3.30;100.00
54850;BME280;47660;51.334;12.396;2023-01-27T05:01:28;100799.88;;;3.70;100.00
54850;BME280;47660;51.334;12.396;2023-01-27T05:03:56;100795.31;;;3.45;100.00
54850;BME280;47660;51.334;12.396;2023-01-27T05:06:22;100788.25;;;3.47;100.00
54850;BME280;47660;51.334;12.396;2023-01-27T05:08:48;100796.06;;;3.49;100.00
54850;BME280;47660;51.334;12.396;2023-01-27T05:11:16;100792.72;;;3.75;100.00
54850;BME280;47660;51.334;12.396;2023-01-27T05:13:42;100803.69;;;3.60;100.00
54850;BME280;47660;51.334;12.396;2023-01-27T05:16:14;100801.28;;;3.83;100.00
54850;BME280;47660;51.334;12.396;2023-01-27T05:18:43;100799.78;;;3.75;100.00
54850;BME280;47660;51.334;12.396;2023-01-27T05:21:12;100804.59;;;3.59;100.00
54850;BME280;47660;51.334;12.396;2023-01-27T05:23:42;100800.78;;;3.69;100.00
54850;BME280;47660;51.334;12.396;2023-01-27T05:28:39;100814.97;;;3.63;100.00
54850;BME280;47660;51.334;12.396;2023-01-27T05:31:16;100811.03;;;3.78;100.00
54850;BME280;47660;51.334;12.396;2023-01-27T05:33:46;100815.66;;;3.70;100.00
54850;BME280;47660;51.334;12.396;2023-01-27T05:36:13;100807.69;;;3.73;100.00
54850;BME280;47660;51.334;12.396;2023-01-27T05:38:44;100814.00;;;3.66;100.00
54850;BME280;47660;51.334;12.396;2023-01-27T05:41:12;100815.72;;;3.68;100.00
54850;BME280;47660;51.334;12.396;2023-01-27T05:43:40;100810.16;;;3.79;100.00
54850;BME280;47660;51.334;12.396;2023-01-27T05:46:10;100813.69;;;3.78;100.00
54850;BME280;47660;51.334;12.396;2023-01-27T05:48:40;100804.72;;;3.85;100.00
54850;BME280;47660;51.334;12.396;2023-01-27T05:51:09;100808.50;;;3.75;100.00
54850;BME280;47660;51.334;12.396;2023-01-27T05:53:37;100814.09;;;3.63;100.00
54850;BME280;47660;51.334;12.396;2023-01-27T05:56:04;100810.56;;;3.64;100.00
54850;BME280;47660;51.334;12.396;2023-01-27T05:58:33;100805.03;;;3.75;100.00
54850;BME280;47660;51.334;12.396;2023-01-27T06:01:13;100813.09;;;4.00;100.00
54850;BME280;47660;51.334;12.396;2023-01-27T06:03:39;100816.97;;;3.86;100.00
54850;BME280;47660;51.334;12.396;2023-01-27T06:06:05;100822.63;;;3.71;100.00
54850;BME280;47660;51.334;12.396;2023-01-27T06:08:32;100818.44;;;3.64;100.00
54850;BME280;47660;51.334;12.396;2023-01-27T06:10:58;100817.97;;;3.49;100.00
54850;BME280;47660;51.334;12.396;2023-01-27T06:13:25;100827.22;;;3.64;100.00
54850;BME280;47660;51.334;12.396;2023-01-27T06:15:51;100828.09;;;3.63;100.00
54850;BME280;47660;51.334;12.396;2023-01-27T06:18:17;100839.59;;;3.92;100.00
54850;BME280;47660;51.334;12.396;2023-01-27T06:20:45;100830.81;;;3.60;100.00
54850;BME280;47660;51.334;12.396;2023-01-27T06:23:13;100828.53;;;3.81;100.00
54850;BME280;47660;51.334;12.396;2023-01-27T06:25:46;100838.53;;;3.66;100.00
54850;BME280;47660;51.334;12.396;2023-01-27T06:28:12;100841.09;;;3.69;100.00
54850;BME280;47660;51.334;12.396;2023-01-27T06:30:39;100846.13;;;3.77;100.00
54850;BME280;47660;51.334;12.396;2023-01-27T06:33:05;100841.69;;;3.79;100.00
54850;BME280;47660;51.334;12.396;2023-01-27T06:35:35;100841.59;;;3.84;100.00
54850;BME280;47660;51.334;12.396;2023-01-27T06:38:03;100843.00;;;3.96;100.00
54850;BME280;47660;51.334;12.396;2023-01-27T06:40:32;100839.75;;;3.86;100.00
54850;BME280;47660;51.334;12.396;2023-01-27T06:42:58;100837.09;;;3.88;100.00
54850;BME280;47660;51.334;12.396;2023-01-27T06:45:27;100839.22;;;3.75;100.00
54850;BME280;47660;51.334;12.396;2023-01-27T06:47:57;100840.50;;;3.91;100.00
54850;BME280;47660;51.334;12.396;2023-01-27T06:50:24;100845.81;;;3.88;100.00
54850;BME280;47660;51.334;12.396;2023-01-27T06:52:50;100839.56;;;3.94;100.00
54850;BME280;47660;51.334;12.396;2023-01-27T06:55:16;100843.56;;;3.76;100.00
54850;BME280;47660;51.334;12.396;2023-01-27T06:57:44;100845.81;;;3.88;100.00
54850;BME280;47660;51.334;12.396;2023-01-27T07:00:13;100839.03;;;3.81;100.00
54850;BME280;47660;51.334;12.396;2023-01-27T07:02:38;100847.38;;;3.97;100.00
54850;BME280;47660;51.334;12.396;2023-01-27T07:05:07;100839.00;;;3.82;100.00
54850;BME280;47660;51.334;12.396;2023-01-27T07:07:32;100840.22;;;4.02;100.00
54850;BME280;47660;51.334;12.396;2023-01-27T07:10:00;100849.03;;;3.99;100.00
54850;BME280;47660;51.334;12.396;2023-01-27T07:12:27;100850.00;;;3.97;100.00
54850;BME280;47660;51.334;12.396;2023-01-27T07:14:53;100850.78;;;3.67;100.00
54850;BME280;47660;51.334;12.396;2023-01-27T07:17:18;100858.63;;;3.69;100.00
54850;BME280;47660;51.334;12.396;2023-01-27T07:19:43;100860.44;;;4.00;100.00
54850;BME280;47660;51.334;12.396;2023-01-27T07:22:09;100862.09;;;4.03;100.00
54850;BME280;47660;51.334;12.396;2023-01-27T07:24:34;100863.25;;;3.92;100.00
54850;BME280;47660;51.334;12.396;2023-01-27T07:26:59;100863.25;;;3.92;100.00
54850;BME280;47660;51.334;12.396;2023-01-27T07:29:25;100872.88;;;3.93;100.00
54850;BME280;47660;51.334;12.396;2023-01-27T07:31:53;100873.78;;;3.92;100.00
54850;BME280;47660;51.334;12.396;2023-01-27T07:34:19;100878.09;;;3.95;100.00
54850;BME280;47660;51.334;12.396;2023-01-27T07:36:46;100876.81;;;4.10;100.00
54850;BME280;47660;51.334;12.396;2023-01-27T07:39:12;100884.81;;;3.72;100.00
54850;BME280;47660;51.334;12.396;2023-01-27T07:41:40;100878.34;;;3.85;100.00
54850;BME280;47660;51.334;12.396;2023-01-27T07:44:05;100888.94;;;3.82;100.00
54850;BME280;47660;51.334;12.396;2023-01-27T07:46:30;100884.25;;;3.94;100.00
54850;BME280;47660;51.334;12.396;2023-01-27T07:48:56;100886.09;;;3.90;100.00
54850;BME280;47660;51.334;12.396;2023-01-27T07:51:21;100892.00;;;4.00;100.00
54850;BME280;47660;51.334;12.396;2023-01-27T07:53:46;100892.69;;;4.37;100.00
54850;BME280;47660;51.334;12.396;2023-01-27T07:56:12;100898.00;;;4.04;100.00
54850;BME280;47660;51.334;12.396;2023-01-27T07:58:41;100901.09;;;4.20;100.00
54850;BME280;47660;51.334;12.396;2023-01-27T08:01:11;100899.66;;;4.39;100.00
54850;BME280;47660;51.334;12.396;2023-01-27T08:03:37;100907.25;;;4.19;100.00
54850;BME280;47660;51.334;12.396;2023-01-27T08:06:05;100903.22;;;4.37;100.00
54850;BME280;47660;51.334;12.396;2023-01-27T08:08:32;100908.72;;;4.29;100.00
54850;BME280;47660;51.334;12.396;2023-01-27T08:11:02;100905.09;;;4.33;100.00
54850;BME280;47660;51.334;12.396;2023-01-27T08:13:29;100898.88;;;4.36;100.00
54850;BME280;47660;51.334;12.396;2023-01-27T08:15:58;100902.41;;;4.35;100.00
54850;BME280;47660;51.334;12.396;2023-01-27T08:18:25;100903.47;;;4.29;100.00
54850;BME280;47660;51.334;12.396;2023-01-27T08:20:52;100907.81;;;4.30;100.00
54850;BME280;47660;51.334;12.396;2023-01-27T08:23:20;100917.19;;;4.40;100.00
54850;BME280;47660;51.334;12.396;2023-01-27T08:25:54;100910.44;;;4.60;100.00
54850;BME280;47660;51.334;12.396;2023-01-27T08:28:20;100906.81;;;4.34;100.00
54850;BME280;47660;51.334;12.396;2023-01-27T08:30:47;100914.88;;;4.29;100.00
54850;BME280;47660;51.334;12.396;2023-01-27T08:33:22;100916.47;;;4.34;100.00
54850;BME280;47660;51.334;12.396;2023-01-27T08:35:49;100909.94;;;4.49;100.00
54850;BME280;47660;51.334;12.396;2023-01-27T08:38:17;100906.22;;;4.56;100.00
54850;BME280;47660;51.334;12.396;2023-01-27T08:40:46;100915.97;;;4.52;100.00
54850;BME280;47660;51.334;12.396;2023-01-27T08:43:13;100918.56;;;4.54;100.00
54850;BME280;47660;51.334;12.396;2023-01-27T08:45:41;100915.09;;;4.52;100.00
54850;BME280;47660;51.334;12.396;2023-01-27T08:48:06;100929.66;;;4.64;100.00
54850;BME280;47660;51.334;12.396;2023-01-27T08:50:34;100925.16;;;4.67;100.00
54850;BME280;47660;51.334;12.396;2023-01-27T08:52:59;100925.81;;;4.75;100.00
54850;BME280;47660;51.334;12.396;2023-01-27T08:55:30;100922.03;;;4.84;100.00
54850;BME280;47660;51.334;12.396;2023-01-27T08:57:56;100919.56;;;4.50;100.00
54850;BME280;47660;51.334;12.396;2023-01-27T09:00:24;100926.94;;;4.67;100.00
54850;BME280;47660;51.334;12.396;2023-01-27T09:02:50;100924.44;;;4.62;100.00
54850;BME280;47660;51.334;12.396;2023-01-27T09:05:16;100918.69;;;4.79;100.00
54850;BME280;47660;51.334;12.396;2023-01-27T09:07:43;100923.66;;;4.88;100.00
54850;BME280;47660;51.334;12.396;2023-01-27T09:10:09;100927.09;;;4.90;100.00
54850;BME280;47660;51.334;12.396;2023-01-27T09:12:35;100922.34;;;4.73;100.00
54850;BME280;47660;51.334;12.396;2023-01-27T09:15:00;100927.56;;;5.05;100.00
54850;BME280;47660;51.334;12.396;2023-01-27T09:17:26;100928.63;;;4.99;100.00
54850;BME280;47660;51.334;12.396;2023-01-27T09:19:51;100924.16;;;5.01;100.00
54850;BME280;47660;51.334;12.396;2023-01-27T09:22:16;100929.47;;;5.00;100.00
54850;BME280;47660;51.334;12.396;2023-01-27T09:24:42;100931.84;;;5.08;100.00
54850;BME280;47660;51.334;12.396;2023-01-27T09:27:07;100924.16;;;5.01;100.00
54850;BME280;47660;51.334;12.396;2023-01-27T09:29:36;100932.63;;;5.11;100.00
54850;BME280;47660;51.334;12.396;2023-01-27T09:32:02;100932.56;;;5.13;100.00
54850;BME280;47660;51.334;12.396;2023-01-27T09:34:31;100935.22;;;5.13;100.00
54850;BME280;47660;51.334;12.396;2023-01-27T09:37:01;100938.66;;;5.15;100.00
54850;BME280;47660;51.334;12.396;2023-01-27T09:39:30;100937.94;;;5.10;100.00
54850;BME280;47660;51.334;12.396;2023-01-27T09:57:33;100937.03;;;5.11;100.00
54850;BME280;47660;51.334;12.396;2023-01-27T10:13:54;100941.38;;;5.40;100.00
54850;BME280;47660;51.334;12.396;2023-01-27T10:19:45;100939.16;;;5.28;100.00
54850;BME280;47660;51.334;12.396;2023-01-27T10:27:25;100953.31;;;5.52;100.00
54850;BME280;47660;51.334;12.396;2023-01-27T10:40:58;100947.00;;;5.29;100.00
54850;BME280;47660;51.334;12.396;2023-01-27T10:48:51;100948.94;;;5.51;100.00
54850;BME280;47660;51.334;12.396;2023-01-27T10:53:55;100948.94;;;5.51;100.00
54850;BME280;47660;51.334;12.396;2023-01-27T10:59:10;100946.25;;;5.26;100.00
54850;BME280;47660;51.334;12.396;2023-01-27T11:01:59;100944.97;;;5.38;100.00
54850;BME280;47660;51.334;12.396;2023-01-27T11:04:47;100941.88;;;5.78;100.00
54850;BME280;47660;51.334;12.396;2023-01-27T11:07:18;100933.22;;;5.48;100.00
54850;BME280;47660;51.334;12.396;2023-01-27T11:12:30;100937.38;;;5.55;100.00
54850;BME280;47660;51.334;12.396;2023-01-27T11:14:58;100937.97;;;5.63;100.00
54850;BME280;47660;51.334;12.396;2023-01-27T11:17:31;100925.50;;;5.69;100.00
54850;BME280;47660;51.334;12.396;2023-01-27T11:30:54;100925.19;;;5.24;100.00
54850;BME280;47660;51.334;12.396;2023-01-27T11:33:47;100930.84;;;5.67;100.00
54850;BME280;47660;51.334;12.396;2023-01-27T11:36:16;100933.13;;;5.51;100.00
54850;BME280;47660;51.334;12.396;2023-01-27T11:38:44;100925.25;;;5.76;100.00
54850;BME280;47660;51.334;12.396;2023-01-27T11:41:09;100926.53;;;5.90;100.00
54850;BME280;47660;51.334;12.396;2023-01-27T11:43:35;100924.06;;;5.85;100.00
54850;BME280;47660;51.334;12.396;2023-01-27T11:46:06;100926.22;;;6.01;100.00
54850;BME280;47660;51.334;12.396;2023-01-27T11:48:37;100928.94;;;5.98;100.00
54850;BME280;47660;51.334;12.396;2023-01-27T11:51:12;100930.50;;;6.03;100.00
54850;BME280;47660;51.334;12.396;2023-01-27T11:53:49;100927.56;;;5.86;100.00
54850;BME280;47660;51.334;12.396;2023-01-27T11:56:23;100923.59;;;5.99;100.00
54850;BME280;47660;51.334;12.396;2023-01-27T11:59:01;100926.22;;;6.01;100.00
54850;BME280;47660;51.334;12.396;2023-01-27T12:01:39;100924.47;;;6.00;100.00
54850;BME280;47660;51.334;12.396;2023-01-27T12:04:25;100922.75;;;5.99;100.00
54850;BME280;47660;51.334;12.396;2023-01-27T12:07:11;100924.28;;;5.79;100.00
54850;BME280;47660;51.334;12.396;2023-01-27T12:09:41;100920.47;;;6.13;100.00
54850;BME280;47660;51.334;12.396;2023-01-27T12:14:48;100923.13;;;6.13;100.00
54850;BME280;47660;51.334;12.396;2023-01-27T12:17:28;100910.06;;;6.34;100.00
54850;BME280;47660;51.334;12.396;2023-01-27T12:20:05;100904.53;;;6.16;100.00
54850;BME280;47660;51.334;12.396;2023-01-27T12:22:33;100906.22;;;6.19;100.00
54850;BME280;47660;51.334;12.396;2023-01-27T12:25:03;100909.59;;;6.22;100.00
54850;BME280;47660;51.334;12.396;2023-01-27T12:27:39;100900.31;;;6.36;100.00
54850;BME280;47660;51.334;12.396;2023-01-27T12:30:20;100906.13;;;6.46;100.00
54850;BME280;47660;51.334;12.396;2023-01-27T12:32:47;100904.22;;;6.26;100.00
54850;BME280;47660;51.334;12.396;2023-01-27T12:35:36;100909.31;;;6.30;100.00
54850;BME280;47660;51.334;12.396;2023-01-27T12:40:56;100904.94;;;6.29;100.00
54850;BME280;47660;51.334;12.396;2023-01-27T12:43:23;100897.16;;;6.26;100.00
54850;BME280;47660;51.334;12.396;2023-01-27T12:48:33;100898.19;;;6.22;100.00
54850;BME280;47660;51.334;12.396;2023-01-27T12:51:16;100903.63;;;6.17;100.00
54850;BME280;47660;51.334;12.396;2023-01-27T12:53:42;100903.72;;;5.89;100.00
54850;BME280;47660;51.334;12.396;2023-01-27T12:56:23;100893.03;;;6.19;100.00
54850;BME280;47660;51.334;12.396;2023-01-27T13:01:36;100900.69;;;6.01;100.00
54850;BME280;47660;51.334;12.396;2023-01-27T13:06:47;100898.94;;;6.26;100.00
54850;BME280;47660;51.334;12.396;2023-01-27T13:12:23;100904.03;;;6.30;100.00
54850;BME280;47660;51.334;12.396;2023-01-27T13:14:57;100898.06;;;6.49;100.00
54850;BME280;47660;51.334;12.396;2023-01-27T13:20:23;100898.50;;;6.38;100.00
54850;BME280;47660;51.334;12.396;2023-01-27T13:25:48;100889.66;;;6.39;100.00
54850;BME280;47660;51.334;12.396;2023-01-27T13:28:23;100887.09;;;6.60;100.00
54850;BME280;47660;51.334;12.396;2023-01-27T13:30:53;100887.22;;;6.57;100.00
54850;BME280;47660;51.334;12.396;2023-01-27T13:36:24;100897.16;;;6.50;100.00
54850;BME280;47660;51.334;12.396;2023-01-27T13:41:42;100897.53;;;6.63;100.00
54850;BME280;47660;51.334;12.396;2023-01-27T13:44:34;100907.38;;;6.59;100.00
54850;BME280;47660;51.334;12.396;2023-01-27T13:47:13;100922.66;;;6.51;100.00
54850;BME280;47660;51.334;12.396;2023-01-27T13:49:46;100915.13;;;6.40;100.00
54850;BME280;47660;51.334;12.396;2023-01-27T13:52:12;100907.69;;;6.02;100.00
54850;BME280;47660;51.334;12.396;2023-01-27T13:54:40;100916.84;;;6.41;100.00
54850;BME280;47660;51.334;12.396;2023-01-27T14:00:34;100926.53;;;6.41;100.00
54850;BME280;47660;51.334;12.396;2023-01-27T14:03:19;100921.78;;;6.50;100.00
54850;BME280;47660;51.334;12.396;2023-01-27T14:06:14;100929.88;;;6.46;100.00
54850;BME280;47660;51.334;12.396;2023-01-27T14:11:41;100927.69;;;6.33;100.00
54850;BME280;47660;51.334;12.396;2023-01-27T14:27:23;100939.22;;;6.31;100.00
54850;BME280;47660;51.334;12.396;2023-01-27T14:30:00;100935.88;;;6.26;100.00
54850;BME280;47660;51.334;12.396;2023-01-27T14:35:28;100941.19;;;6.73;100.00
54850;BME280;47660;51.334;12.396;2023-01-27T14:46:43;100942.84;;;6.76;100.00
54850;BME280;47660;51.334;12.396;2023-01-27T14:51:51;100942.72;;;6.31;100.00
54850;BME280;47660;51.334;12.396;2023-01-27T14:57:11;100943.97;;;6.46;100.00
54850;BME280;47660;51.334;12.396;2023-01-27T15:02:27;100952.25;;;6.10;100.00
54850;BME280;47660;51.334;12.396;2023-01-27T15:05:11;100953.38;;;6.28;100.00
54850;BME280;47660;51.334;12.396;2023-01-27T15:08:07;100952.13;;;6.38;100.00
54850;BME280;47660;51.334;12.396;2023-01-27T15:10:33;100949.41;;;6.16;100.00
54850;BME280;47660;51.334;12.396;2023-01-27T15:16:41;100954.00;;;7.06;100.00
54850;BME280;47660;51.334;12.396;2023-01-27T15:19:33;100944.41;;;6.81;100.00
54850;BME280;47660;51.334;12.396;2023-01-27T15:22:17;100949.53;;;6.62;100.00
54850;BME280;47660;51.334;12.396;2023-01-27T15:25:20;100954.09;;;6.81;100.00
54850;BME280;47660;51.334;12.396;2023-01-27T15:27:44;100952.53;;;6.51;100.00
54850;BME280;47660;51.334;12.396;2023-01-27T15:32:48;100965.50;;;6.59;100.00
54850;BME280;47660;51.334;12.396;2023-01-27T15:35:35;100963.81;;;6.80;100.00
54850;BME280;47660;51.334;12.396;2023-01-27T15:40:29;100967.88;;;6.42;100.00
54850;BME280;47660;51.334;12.396;2023-01-27T15:48:05;100970.25;;;6.73;100.00
54850;BME280;47660;51.334;12.396;2023-01-27T15:50:34;100972.03;;;6.49;100.00